sensor_id;sensor_type;location;lat;lon;timestamp;temperature;humidity
12386;DHT22;6257;57.634;18.310;2024-02-23T00:01:50;5.20;99.90
12386;DHT22;6257;57.634;18.310;2024-02-23T00:04:18;5.20;99.90
12386;DHT22;6257;57.634;18.310;2024-02-23T00:06:45;5.20;99.90
12386;DHT22;6257;57.634;18.310;2024-02-23T00:09:12;5.20;99.90
12386;DHT22;6257;57.634;18.310;2024-02-23T00:11:39;5.20;99.90
12386;DHT22;6257;57.634;18.310;2024-02-23T00:14:11;5.20;99.90
12386;DHT22;6257;57.634;18.310;2024-02-23T00:16:39;5.20;99.90
12386;DHT22;6257;57.634;18.310;2024-02-23T00:19:07;5.10;99.90
12386;DHT22;6257;57.634;18.310;2024-02-23T00:21:35;5.10;99.90
12386;DHT22;6257;57.634;18.310;2024-02-23T00:24:02;5.10;99.90
12386;DHT22;6257;57.634;18.310;2024-02-23T00:26:29;5.20;99.90
12386;DHT22;6257;57.634;18.310;2024-02-23T00:28:56;5.20;99.90
12386;DHT22;6257;57.634;18.310;2024-02-23T00:31:25;5.20;99.90
12386;DHT22;6257;57.634;18.310;2024-02-23T00:33:52;5.10;99.90
12386;DHT22;6257;57.634;18.310;2024-02-23T00:36:19;5.20;99.90
12386;DHT22;6257;57.634;18.310;2024-02-23T00:41:34;5.20;99.90
12386;DHT22;6257;57.634;18.310;2024-02-23T00:44:06;5.20;99.90
12386;DHT22;6257;57.634;18.310;2024-02-23T00:49:41;5.20;99.90
12386;DHT22;6257;57.634;18.310;2024-02-23T00:52:18;5.20;99.90
12386;DHT22;6257;57.634;18.310;2024-02-23T00:57:28;5.20;99.90
12386;DHT22;6257;57.634;18.310;2024-02-23T01:00:08;5.20;99.90
12386;DHT22;6257;57.634;18.310;2024-02-23T01:02:36;5.20;99.90
12386;DHT22;6257;57.634;18.310;2024-02-23T01:05:06;5.20;99.90
12386;DHT22;6257;57.634;18.310;2024-02-23T01:07:35;5.20;99.90
12386;DHT22;6257;57.634;18.310;2024-02-23T01:10:02;5.20;99.90
12386;DHT22;6257;57.634;18.310;2024-02-23T01:12:29;5.20;99.90
12386;DHT22;6257;57.634;18.310;2024-02-23T01:14:56;5.20;99.90
12386;DHT22;6257;57.634;18.310;2024-02-23T01:17:23;5.20;99.90
12386;DHT22;6257;57.634;18.310;2024-02-23T01:19:50;5.20;99.90
12386;DHT22;6257;57.634;18.310;2024-02-23T01:22:19;5.30;99.90
12386;DHT22;6257;57.634;18.310;2024-02-23T01:30:11;5.20;99.90
12386;DHT22;6257;57.634;18.310;2024-02-23T01:32:45;5.20;99.90
12386;DHT22;6257;57.634;18.310;2024-02-23T01:37:59;5.20;99.90
12386;DHT22;6257;57.634;18.310;2024-02-23T01:40:30;5.20;99.90
12386;DHT22;6257;57.634;18.310;2024-02-23T01:43:16;5.20;99.90
12386;DHT22;6257;57.634;18.310;2024-02-23T01:45:43;5.50;99.90
12386;DHT22;6257;57.634;18.310;2024-02-23T01:50:55;5.20;99.90
12386;DHT22;6257;57.634;18.310;2024-02-23T01:53:26;5.20;99.90
12386;DHT22;6257;57.634;18.310;2024-02-23T01:58:39;5.20;99.90
12386;DHT22;6257;57.634;18.310;2024-02-23T02:03:43;5.20;99.90
12386;DHT22;6257;57.634;18.310;2024-02-23T02:06:17;5.20;99.90
12386;DHT22;6257;57.634;18.310;2024-02-23T02:08:46;5.20;99.90
12386;DHT22;6257;57.634;18.310;2024-02-23T02:11:13;5.20;99.90
12386;DHT22;6257;57.634;18.310;2024-02-23T02:13:40;5.20;99.90
12386;DHT22;6257;57.634;18.310;2024-02-23T02:16:07;5.20;99.90
12386;DHT22;6257;57.634;18.310;2024-02-23T02:18:35;5.20;99.90
12386;DHT22;6257;57.634;18.310;2024-02-23T02:21:02;5.20;99.90
12386;DHT22;6257;57.634;18.310;2024-02-23T02:23:29;5.20;99.90
12386;DHT22;6257;57.634;18.310;2024-02-23T02:25:58;5.20;99.90
12386;DHT22;6257;57.634;18.310;2024-02-23T02:28:25;5.20;99.90
12386;DHT22;6257;57.634;18.310;2024-02-23T02:30:53;5.20;99.90
12386;DHT22;6257;57.634;18.310;2024-02-23T02:33:20;5.20;99.90
12386;DHT22;6257;57.634;18.310;2024-02-23T02:35:47;5.10;99.90
12386;DHT22;6257;57.634;18.310;2024-02-23T02:38:15;5.20;99.90
12386;DHT22;6257;57.634;18.310;2024-02-23T02:40:42;5.20;99.90
12386;DHT22;6257;57.634;18.310;2024-02-23T02:43:11;5.20;99.90
12386;DHT22;6257;57.634;18.310;2024-02-23T02:45:38;5.20;99.90
12386;DHT22;6257;57.634;18.310;2024-02-23T02:48:06;5.20;99.90
12386;DHT22;6257;57.634;18.310;2024-02-23T02:50:33;5.20;99.90
12386;DHT22;6257;57.634;18.310;2024-02-23T02:53:00;5.20;99.90
12386;DHT22;6257;57.634;18.310;2024-02-23T02:55:27;5.20;99.90
12386;DHT22;6257;57.634;18.310;2024-02-23T02:57:53;5.20;99.90
12386;DHT22;6257;57.634;18.310;2024-02-23T03:00:22;5.20;99.90
12386;DHT22;6257;57.634;18.310;2024-02-23T03:02:49;5.20;99.90
12386;DHT22;6257;57.634;18.310;2024-02-23T03:05:16;5.20;99.90
12386;DHT22;6257;57.634;18.310;2024-02-23T03:07:43;5.20;99.90
12386;DHT22;6257;57.634;18.310;2024-02-23T03:10:10;5.20;99.90
12386;DHT22;6257;57.634;18.310;2024-02-23T03:12:37;5.20;99.90
12386;DHT22;6257;57.634;18.310;2024-02-23T03:15:05;5.20;99.90
12386;DHT22;6257;57.634;18.310;2024-02-23T03:17:34;5.20;99.90
12386;DHT22;6257;57.634;18.310;2024-02-23T03:20:01;5.20;99.90
12386;DHT22;6257;57.634;18.310;2024-02-23T03:22:31;5.20;99.90
12386;DHT22;6257;57.634;18.310;2024-02-23T03:24:58;5.20;99.90
12386;DHT22;6257;57.634;18.310;2024-02-23T03:27:28;5.20;99.90
12386;DHT22;6257;57.634;18.310;2024-02-23T03:29:56;5.20;99.90
12386;DHT22;6257;57.634;18.310;2024-02-23T03:32:23;5.20;99.90
12386;DHT22;6257;57.634;18.310;2024-02-23T03:37:19;5.30;99.90
12386;DHT22;6257;57.634;18.310;2024-02-23T03:39:46;5.30;99.90
12386;DHT22;6257;57.634;18.310;2024-02-23T03:42:14;5.30;99.90
12386;DHT22;6257;57.634;18.310;2024-02-23T03:44:41;5.30;99.90
12386;DHT22;6257;57.634;18.310;2024-02-23T03:47:08;5.30;99.90
12386;DHT22;6257;57.634;18.310;2024-02-23T03:49:35;5.30;99.90
12386;DHT22;6257;57.634;18.310;2024-02-23T03:52:04;5.30;99.90
12386;DHT22;6257;57.634;18.310;2024-02-23T03:54:31;5.30;99.90
12386;DHT22;6257;57.634;18.310;2024-02-23T03:56:58;5.30;99.90
12386;DHT22;6257;57.634;18.310;2024-02-23T03:59:25;5.30;99.90
12386;DHT22;6257;57.634;18.310;2024-02-23T04:01:54;5.30;99.90
12386;DHT22;6257;57.634;18.310;2024-02-23T04:04:21;5.30;99.90
12386;DHT22;6257;57.634;18.310;2024-02-23T04:06:48;8.10;99.90
12386;DHT22;6257;57.634;18.310;2024-02-23T04:11:47;5.30;99.90
12386;DHT22;6257;57.634;18.310;2024-02-23T04:14:14;5.30;99.90
12386;DHT22;6257;57.634;18.310;2024-02-23T04:16:41;5.30;99.90
12386;DHT22;6257;57.634;18.310;2024-02-23T04:19:08;5.40;99.90
12386;DHT22;6257;57.634;18.310;2024-02-23T04:21:35;5.30;99.90
12386;DHT22;6257;57.634;18.310;2024-02-23T04:24:02;5.40;99.90
12386;DHT22;6257;57.634;18.310;2024-02-23T04:26:30;5.40;99.90
12386;DHT22;6257;57.634;18.310;2024-02-23T04:28:57;5.40;99.90
12386;DHT22;6257;57.634;18.310;2024-02-23T04:31:24;5.40;99.90
12386;DHT22;6257;57.634;18.310;2024-02-23T04:33:51;5.40;99.90
12386;DHT22;6257;57.634;18.310;2024-02-23T04:36:19;5.40;99.90
12386;DHT22;6257;57.634;18.310;2024-02-23T04:38:46;5.40;99.90
12386;DHT22;6257;57.634;18.310;2024-02-23T04:41:13;5.40;99.90
12386;DHT22;6257;57.634;18.310;2024-02-23T04:43:42;5.40;99.90
12386;DHT22;6257;57.634;18.310;2024-02-23T04:46:09;5.40;99.90
12386;DHT22;6257;57.634;18.310;2024-02-23T04:48:36;6.50;99.90
12386;DHT22;6257;57.634;18.310;2024-02-23T04:51:03;5.40;99.90
12386;DHT22;6257;57.634;18.310;2024-02-23T04:53:32;4.80;99.90
12386;DHT22;6257;57.634;18.310;2024-02-23T04:56:03;5.50;99.90
12386;DHT22;6257;57.634;18.310;2024-02-23T04:58:30;5.50;99.90
12386;DHT22;6257;57.634;18.310;2024-02-23T05:00:58;5.50;99.90
12386;DHT22;6257;57.634;18.310;2024-02-23T05:03:25;5.50;99.90
12386;DHT22;6257;57.634;18.310;2024-02-23T05:05:53;5.50;99.90
12386;DHT22;6257;57.634;18.310;2024-02-23T05:08:20;5.50;99.90
12386;DHT22;6257;57.634;18.310;2024-02-23T05:10:47;5.50;99.90
12386;DHT22;6257;57.634;18.310;2024-02-23T05:13:14;5.50;99.90
12386;DHT22;6257;57.634;18.310;2024-02-23T05:15:41;5.50;99.90
12386;DHT22;6257;57.634;18.310;2024-02-23T05:20:37;5.50;99.90
12386;DHT22;6257;57.634;18.310;2024-02-23T05:23:04;5.50;99.90
12386;DHT22;6257;57.634;18.310;2024-02-23T05:25:31;5.50;99.90
12386;DHT22;6257;57.634;18.310;2024-02-23T05:27:58;5.50;99.90
12386;DHT22;6257;57.634;18.310;2024-02-23T05:30:25;5.50;99.90
12386;DHT22;6257;57.634;18.310;2024-02-23T05:32:52;5.50;99.90
12386;DHT22;6257;57.634;18.310;2024-02-23T05:35:21;5.50;99.90
12386;DHT22;6257;57.634;18.310;2024-02-23T05:37:48;4.10;99.90
12386;DHT22;6257;57.634;18.310;2024-02-23T05:40:16;5.50;99.90
12386;DHT22;6257;57.634;18.310;2024-02-23T05:42:43;5.50;99.90
12386;DHT22;6257;57.634;18.310;2024-02-23T05:45:10;5.50;99.90
12386;DHT22;6257;57.634;18.310;2024-02-23T05:47:37;5.50;99.90
12386;DHT22;6257;57.634;18.310;2024-02-23T05:50:05;5.50;99.90
12386;DHT22;6257;57.634;18.310;2024-02-23T05:55:02;5.50;99.90
12386;DHT22;6257;57.634;18.310;2024-02-23T05:57:29;5.50;99.90
12386;DHT22;6257;57.634;18.310;2024-02-23T05:59:56;5.50;99.90
12386;DHT22;6257;57.634;18.310;2024-02-23T06:02:23;5.50;99.90
12386;DHT22;6257;57.634;18.310;2024-02-23T06:04:50;5.50;99.90
12386;DHT22;6257;57.634;18.310;2024-02-23T06:07:17;5.50;99.90
12386;DHT22;6257;57.634;18.310;2024-02-23T06:12:15;5.50;99.90
12386;DHT22;6257;57.634;18.310;2024-02-23T06:14:44;5.50;99.90
12386;DHT22;6257;57.634;18.310;2024-02-23T06:17:11;5.50;99.90
12386;DHT22;6257;57.634;18.310;2024-02-23T06:19:38;5.50;99.90
12386;DHT22;6257;57.634;18.310;2024-02-23T06:22:05;5.50;99.90
12386;DHT22;6257;57.634;18.310;2024-02-23T06:24:34;5.50;99.90
12386;DHT22;6257;57.634;18.310;2024-02-23T06:27:03;5.50;99.90
12386;DHT22;6257;57.634;18.310;2024-02-23T06:29:30;5.50;99.90
12386;DHT22;6257;57.634;18.310;2024-02-23T06:31:57;5.60;99.90
12386;DHT22;6257;57.634;18.310;2024-02-23T06:34:24;5.60;99.90
12386;DHT22;6257;57.634;18.310;2024-02-23T06:36:51;5.60;99.90
12386;DHT22;6257;57.634;18.310;2024-02-23T06:39:18;5.60;99.90
12386;DHT22;6257;57.634;18.310;2024-02-23T06:41:45;5.60;99.90
12386;DHT22;6257;57.634;18.310;2024-02-23T06:44:14;5.60;99.90
12386;DHT22;6257;57.634;18.310;2024-02-23T06:46:41;5.60;99.90
12386;DHT22;6257;57.634;18.310;2024-02-23T06:49:10;5.60;99.90
12386;DHT22;6257;57.634;18.310;2024-02-23T06:51:37;5.70;99.90
12386;DHT22;6257;57.634;18.310;2024-02-23T06:54:06;5.70;99.90
12386;DHT22;6257;57.634;18.310;2024-02-23T06:56:33;5.70;99.90
12386;DHT22;6257;57.634;18.310;2024-02-23T06:59:02;5.70;99.90
12386;DHT22;6257;57.634;18.310;2024-02-23T07:01:30;5.80;99.90
12386;DHT22;6257;57.634;18.310;2024-02-23T07:03:59;5.90;99.90
12386;DHT22;6257;57.634;18.310;2024-02-23T07:06:26;6.00;99.90
12386;DHT22;6257;57.634;18.310;2024-02-23T07:08:56;6.00;99.90
12386;DHT22;6257;57.634;18.310;2024-02-23T07:11:23;6.10;99.90
12386;DHT22;6257;57.634;18.310;2024-02-23T07:13:50;6.20;99.90
12386;DHT22;6257;57.634;18.310;2024-02-23T07:16:17;6.30;99.90
12386;DHT22;6257;57.634;18.310;2024-02-23T07:18:46;6.40;99.90
12386;DHT22;6257;57.634;18.310;2024-02-23T07:23:40;6.50;99.90
12386;DHT22;6257;57.634;18.310;2024-02-23T07:26:07;6.50;99.90
12386;DHT22;6257;57.634;18.310;2024-02-23T07:28:34;6.60;99.90
12386;DHT22;6257;57.634;18.310;2024-02-23T07:31:01;6.60;99.90
12386;DHT22;6257;57.634;18.310;2024-02-23T07:33:28;6.60;99.90
12386;DHT22;6257;57.634;18.310;2024-02-23T07:35:57;6.60;99.90
12386;DHT22;6257;57.634;18.310;2024-02-23T07:38:24;6.60;99.90
12386;DHT22;6257;57.634;18.310;2024-02-23T07:40:51;6.60;99.90
12386;DHT22;6257;57.634;18.310;2024-02-23T07:43:18;6.60;99.90
12386;DHT22;6257;57.634;18.310;2024-02-23T07:45:45;6.60;99.90
12386;DHT22;6257;57.634;18.310;2024-02-23T07:48:12;6.70;99.90
12386;DHT22;6257;57.634;18.310;2024-02-23T07:50:39;6.60;99.90
12386;DHT22;6257;57.634;18.310;2024-02-23T07:53:07;6.70;99.90
12386;DHT22;6257;57.634;18.310;2024-02-23T07:55:34;6.30;99.90
12386;DHT22;6257;57.634;18.310;2024-02-23T07:58:01;6.80;99.90
12386;DHT22;6257;57.634;18.310;2024-02-23T08:00:28;6.80;99.90
12386;DHT22;6257;57.634;18.310;2024-02-23T08:02:56;9.40;99.90
12386;DHT22;6257;57.634;18.310;2024-02-23T08:05:24;6.90;99.90
12386;DHT22;6257;57.634;18.310;2024-02-23T08:07:51;6.80;99.90
12386;DHT22;6257;57.634;18.310;2024-02-23T08:10:19;6.80;99.90
12386;DHT22;6257;57.634;18.310;2024-02-23T08:12:47;6.80;99.90
12386;DHT22;6257;57.634;18.310;2024-02-23T08:15:14;6.80;99.90
12386;DHT22;6257;57.634;18.310;2024-02-23T08:17:41;6.70;99.90
12386;DHT22;6257;57.634;18.310;2024-02-23T08:20:09;6.70;99.90
12386;DHT22;6257;57.634;18.310;2024-02-23T08:22:36;6.70;99.90
12386;DHT22;6257;57.634;18.310;2024-02-23T08:25:04;6.60;99.90
12386;DHT22;6257;57.634;18.310;2024-02-23T08:27:32;6.60;99.90
12386;DHT22;6257;57.634;18.310;2024-02-23T08:29:59;6.50;99.90
12386;DHT22;6257;57.634;18.310;2024-02-23T08:32:26;6.50;99.90
12386;DHT22;6257;57.634;18.310;2024-02-23T08:34:53;6.50;99.90
12386;DHT22;6257;57.634;18.310;2024-02-23T08:37:25;6.40;99.90
12386;DHT22;6257;57.634;18.310;2024-02-23T08:39:52;6.40;99.90
12386;DHT22;6257;57.634;18.310;2024-02-23T08:42:19;6.40;99.90
12386;DHT22;6257;57.634;18.310;2024-02-23T08:44:47;6.30;99.90
12386;DHT22;6257;57.634;18.310;2024-02-23T08:47:14;6.30;99.90
12386;DHT22;6257;57.634;18.310;2024-02-23T08:49:41;6.20;99.90
12386;DHT22;6257;57.634;18.310;2024-02-23T08:52:08;6.20;99.90
12386;DHT22;6257;57.634;18.310;2024-02-23T08:54:35;6.20;99.90
12386;DHT22;6257;57.634;18.310;2024-02-23T08:57:03;6.10;99.90
12386;DHT22;6257;57.634;18.310;2024-02-23T08:59:30;6.10;99.90
12386;DHT22;6257;57.634;18.310;2024-02-23T09:01:59;6.10;99.90
12386;DHT22;6257;57.634;18.310;2024-02-23T09:04:26;6.10;99.90
12386;DHT22;6257;57.634;18.310;2024-02-23T09:06:53;6.10;99.90
12386;DHT22;6257;57.634;18.310;2024-02-23T09:09:20;6.10;99.90
12386;DHT22;6257;57.634;18.310;2024-02-23T09:11:47;6.10;99.90
12386;DHT22;6257;57.634;18.310;2024-02-23T09:14:14;6.10;99.90
12386;DHT22;6257;57.634;18.310;2024-02-23T09:16:41;6.10;99.90
12386;DHT22;6257;57.634;18.310;2024-02-23T09:19:09;6.10;99.90
12386;DHT22;6257;57.634;18.310;2024-02-23T09:21:36;6.10;99.90
12386;DHT22;6257;57.634;18.310;2024-02-23T09:24:04;6.20;99.90
12386;DHT22;6257;57.634;18.310;2024-02-23T09:26:31;6.20;99.90
12386;DHT22;6257;57.634;18.310;2024-02-23T09:28:58;6.20;99.90
12386;DHT22;6257;57.634;18.310;2024-02-23T09:31:25;6.30;99.90
12386;DHT22;6257;57.634;18.310;2024-02-23T09:33:53;6.20;99.90
12386;DHT22;6257;57.634;18.310;2024-02-23T09:36:22;6.30;99.90
12386;DHT22;6257;57.634;18.310;2024-02-23T09:38:50;6.30;99.90
12386;DHT22;6257;57.634;18.310;2024-02-23T09:41:20;6.30;99.90
12386;DHT22;6257;57.634;18.310;2024-02-23T09:43:48;6.30;99.90
12386;DHT22;6257;57.634;18.310;2024-02-23T09:46:16;6.30;99.90
12386;DHT22;6257;57.634;18.310;2024-02-23T09:48:43;6.40;99.90
12386;DHT22;6257;57.634;18.310;2024-02-23T09:51:11;6.40;99.90
12386;DHT22;6257;57.634;18.310;2024-02-23T09:53:41;6.40;99.90
12386;DHT22;6257;57.634;18.310;2024-02-23T09:56:09;6.40;99.90
12386;DHT22;6257;57.634;18.310;2024-02-23T09:58:37;6.40;99.90
12386;DHT22;6257;57.634;18.310;2024-02-23T10:01:05;6.50;99.90
12386;DHT22;6257;57.634;18.310;2024-02-23T10:03:32;6.50;99.90
12386;DHT22;6257;57.634;18.310;2024-02-23T10:06:00;6.50;99.90
12386;DHT22;6257;57.634;18.310;2024-02-23T10:08:27;6.50;99.90
12386;DHT22;6257;57.634;18.310;2024-02-23T10:10:56;6.50;99.90
12386;DHT22;6257;57.634;18.310;2024-02-23T10:13:23;6.60;99.90
12386;DHT22;6257;57.634;18.310;2024-02-23T10:15:50;6.60;99.90
12386;DHT22;6257;57.634;18.310;2024-02-23T10:18:18;6.50;99.90
12386;DHT22;6257;57.634;18.310;2024-02-23T10:20:45;6.50;99.90
12386;DHT22;6257;57.634;18.310;2024-02-23T10:23:12;6.50;99.90
12386;DHT22;6257;57.634;18.310;2024-02-23T10:25:40;6.50;99.90
12386;DHT22;6257;57.634;18.310;2024-02-23T10:28:09;6.40;99.90
12386;DHT22;6257;57.634;18.310;2024-02-23T10:30:37;6.40;99.90
12386;DHT22;6257;57.634;18.310;2024-02-23T10:33:05;6.40;99.90
12386;DHT22;6257;57.634;18.310;2024-02-23T10:38:02;6.40;99.90
12386;DHT22;6257;57.634;18.310;2024-02-23T10:40:31;6.40;99.90
12386;DHT22;6257;57.634;18.310;2024-02-23T10:43:02;6.50;99.90
12386;DHT22;6257;57.634;18.310;2024-02-23T10:45:31;6.50;99.90
12386;DHT22;6257;57.634;18.310;2024-02-23T10:47:59;6.50;99.90
12386;DHT22;6257;57.634;18.310;2024-02-23T10:50:26;6.40;99.90
12386;DHT22;6257;57.634;18.310;2024-02-23T10:52:54;6.30;99.90
12386;DHT22;6257;57.634;18.310;2024-02-23T10:55:23;6.30;99.90
12386;DHT22;6257;57.634;18.310;2024-02-23T10:57:53;6.30;99.90
12386;DHT22;6257;57.634;18.310;2024-02-23T11:00:21;6.30;99.90
12386;DHT22;6257;57.634;18.310;2024-02-23T11:02:52;6.20;99.90
12386;DHT22;6257;57.634;18.310;2024-02-23T11:05:20;6.10;99.90
12386;DHT22;6257;57.634;18.310;2024-02-23T11:07:48;6.10;99.90
12386;DHT22;6257;57.634;18.310;2024-02-23T11:10:17;6.10;99.90
12386;DHT22;6257;57.634;18.310;2024-02-23T11:12:57;6.00;99.90
12386;DHT22;6257;57.634;18.310;2024-02-23T11:15:29;6.00;99.90
12386;DHT22;6257;57.634;18.310;2024-02-23T11:18:00;6.00;99.90
12386;DHT22;6257;57.634;18.310;2024-02-23T11:20:34;6.00;99.90
12386;DHT22;6257;57.634;18.310;2024-02-23T11:23:01;6.00;99.90
12386;DHT22;6257;57.634;18.310;2024-02-23T11:25:39;6.10;99.90
12386;DHT22;6257;57.634;18.310;2024-02-23T11:28:06;6.10;99.90
12386;DHT22;6257;57.634;18.310;2024-02-23T11:30:33;6.10;99.90
12386;DHT22;6257;57.634;18.310;2024-02-23T11:33:03;6.10;99.90
12386;DHT22;6257;57.634;18.310;2024-02-23T11:35:30;6.10;99.90
12386;DHT22;6257;57.634;18.310;2024-02-23T11:37:57;6.20;99.90
12386;DHT22;6257;57.634;18.310;2024-02-23T11:40:26;6.20;99.90
12386;DHT22;6257;57.634;18.310;2024-02-23T11:42:54;6.20;99.90
12386;DHT22;6257;57.634;18.310;2024-02-23T11:45:21;6.10;99.90
12386;DHT22;6257;57.634;18.310;2024-02-23T11:47:48;6.20;99.90
12386;DHT22;6257;57.634;18.310;2024-02-23T11:50:17;6.20;99.90
12386;DHT22;6257;57.634;18.310;2024-02-23T11:52:46;6.30;99.90
12386;DHT22;6257;57.634;18.310;2024-02-23T11:55:18;6.30;99.90
12386;DHT22;6257;57.634;18.310;2024-02-23T11:57:48;6.40;99.90
12386;DHT22;6257;57.634;18.310;2024-02-23T12:00:15;6.40;99.90
12386;DHT22;6257;57.634;18.310;2024-02-23T12:02:43;6.40;99.90
12386;DHT22;6257;57.634;18.310;2024-02-23T12:05:12;6.30;99.90
12386;DHT22;6257;57.634;18.310;2024-02-23T12:07:40;6.20;99.90
12386;DHT22;6257;57.634;18.310;2024-02-23T12:10:08;6.10;99.90
12386;DHT22;6257;57.634;18.310;2024-02-23T12:12:36;6.20;99.90
12386;DHT22;6257;57.634;18.310;2024-02-23T12:15:05;6.30;99.90
12386;DHT22;6257;57.634;18.310;2024-02-23T12:17:35;6.30;99.90
12386;DHT22;6257;57.634;18.310;2024-02-23T12:20:03;6.30;99.90
12386;DHT22;6257;57.634;18.310;2024-02-23T12:22:30;6.20;99.90
12386;DHT22;6257;57.634;18.310;2024-02-23T12:24:59;6.00;99.90
12386;DHT22;6257;57.634;18.310;2024-02-23T12:27:28;5.90;99.90
12386;DHT22;6257;57.634;18.310;2024-02-23T12:29:56;6.00;99.90
12386;DHT22;6257;57.634;18.310;2024-02-23T12:32:23;6.00;99.90
12386;DHT22;6257;57.634;18.310;2024-02-23T12:34:50;6.00;99.90
12386;DHT22;6257;57.634;18.310;2024-02-23T12:37:17;6.00;99.90
12386;DHT22;6257;57.634;18.310;2024-02-23T12:39:44;6.00;99.90
12386;DHT22;6257;57.634;18.310;2024-02-23T12:42:13;5.90;99.90
12386;DHT22;6257;57.634;18.310;2024-02-23T12:44:40;5.80;99.90
12386;DHT22;6257;57.634;18.310;2024-02-23T12:47:07;5.80;99.90
12386;DHT22;6257;57.634;18.310;2024-02-23T12:49:34;5.70;99.90
12386;DHT22;6257;57.634;18.310;2024-02-23T12:52:02;5.70;99.90
12386;DHT22;6257;57.634;18.310;2024-02-23T12:54:29;5.60;99.90
12386;DHT22;6257;57.634;18.310;2024-02-23T12:56:55;5.50;99.90
12386;DHT22;6257;57.634;18.310;2024-02-23T12:59:24;5.50;99.90
12386;DHT22;6257;57.634;18.310;2024-02-23T13:01:51;5.60;99.90
12386;DHT22;6257;57.634;18.310;2024-02-23T13:04:18;5.60;99.90
12386;DHT22;6257;57.634;18.310;2024-02-23T13:06:45;5.60;99.90
12386;DHT22;6257;57.634;18.310;2024-02-23T13:09:12;5.60;99.90
12386;DHT22;6257;57.634;18.310;2024-02-23T13:11:40;5.50;99.90
12386;DHT22;6257;57.634;18.310;2024-02-23T13:14:08;5.50;99.90
12386;DHT22;6257;57.634;18.310;2024-02-23T13:19:04;5.50;99.90
12386;DHT22;6257;57.634;18.310;2024-02-23T13:21:31;5.50;99.90
12386;DHT22;6257;57.634;18.310;2024-02-23T13:23:59;5.50;99.90
12386;DHT22;6257;57.634;18.310;2024-02-23T13:26:26;5.60;99.90
12386;DHT22;6257;57.634;18.310;2024-02-23T13:28:53;5.80;99.90
12386;DHT22;6257;57.634;18.310;2024-02-23T13:31:20;5.90;99.90
12386;DHT22;6257;57.634;18.310;2024-02-23T13:33:48;5.90;99.90
12386;DHT22;6257;57.634;18.310;2024-02-23T13:36:15;5.90;99.90
12386;DHT22;6257;57.634;18.310;2024-02-23T13:38:42;5.90;99.90
12386;DHT22;6257;57.634;18.310;2024-02-23T13:41:09;5.90;99.90
12386;DHT22;6257;57.634;18.310;2024-02-23T13:43:37;5.90;99.90
12386;DHT22;6257;57.634;18.310;2024-02-23T13:46:04;5.90;99.90
12386;DHT22;6257;57.634;18.310;2024-02-23T13:48:32;6.00;99.90
12386;DHT22;6257;57.634;18.310;2024-02-23T13:51:00;5.90;99.90
12386;DHT22;6257;57.634;18.310;2024-02-23T13:53:29;5.90;99.90
12386;DHT22;6257;57.634;18.310;2024-02-23T13:55:57;5.90;99.90
12386;DHT22;6257;57.634;18.310;2024-02-23T13:58:23;5.90;99.90
12386;DHT22;6257;57.634;18.310;2024-02-23T14:00:51;5.90;99.90
12386;DHT22;6257;57.634;18.310;2024-02-23T14:03:18;5.90;99.90
12386;DHT22;6257;57.634;18.310;2024-02-23T14:05:45;5.80;99.90
12386;DHT22;6257;57.634;18.310;2024-02-23T14:08:14;5.80;99.90
12386;DHT22;6257;57.634;18.310;2024-02-23T14:10:41;5.80;99.90
12386;DHT22;6257;57.634;18.310;2024-02-23T14:13:08;5.80;99.90
12386;DHT22;6257;57.634;18.310;2024-02-23T14:15:36;5.80;99.90
12386;DHT22;6257;57.634;18.310;2024-02-23T14:18:03;5.80;99.90
12386;DHT22;6257;57.634;18.310;2024-02-23T14:20:30;5.80;99.90
12386;DHT22;6257;57.634;18.310;2024-02-23T14:22:57;5.70;99.90
12386;DHT22;6257;57.634;18.310;2024-02-23T14:25:26;5.70;99.90
12386;DHT22;6257;57.634;18.310;2024-02-23T14:30:21;5.60;99.90
12386;DHT22;6257;57.634;18.310;2024-02-23T14:32:48;5.50;99.90
12386;DHT22;6257;57.634;18.310;2024-02-23T14:35:15;5.60;99.90
12386;DHT22;6257;57.634;18.310;2024-02-23T14:37:42;5.50;99.90
12386;DHT22;6257;57.634;18.310;2024-02-23T14:40:10;5.50;99.90
12386;DHT22;6257;57.634;18.310;2024-02-23T14:47:37;5.40;99.90
12386;DHT22;6257;57.634;18.310;2024-02-23T14:50:06;5.40;99.90
12386;DHT22;6257;57.634;18.310;2024-02-23T14:52:34;5.40;99.90
12386;DHT22;6257;57.634;18.310;2024-02-23T14:55:01;5.30;99.90
12386;DHT22;6257;57.634;18.310;2024-02-23T14:57:29;5.30;99.90
12386;DHT22;6257;57.634;18.310;2024-02-23T14:59:57;5.20;99.90
12386;DHT22;6257;57.634;18.310;2024-02-23T15:02:24;5.20;99.90
12386;DHT22;6257;57.634;18.310;2024-02-23T15:04:52;5.10;99.90
12386;DHT22;6257;57.634;18.310;2024-02-23T15:07:19;5.10;99.90
12386;DHT22;6257;57.634;18.310;2024-02-23T15:12:13;4.90;99.90
12386;DHT22;6257;57.634;18.310;2024-02-23T15:14:40;4.90;99.90
12386;DHT22;6257;57.634;18.310;2024-02-23T15:19:36;4.80;99.90
12386;DHT22;6257;57.634;18.310;2024-02-23T15:22:03;4.70;99.90
12386;DHT22;6257;57.634;18.310;2024-02-23T15:24:31;4.70;99.90
12386;DHT22;6257;57.634;18.310;2024-02-23T15:26:58;4.70;99.90
12386;DHT22;6257;57.634;18.310;2024-02-23T15:29:25;4.60;99.90
12386;DHT22;6257;57.634;18.310;2024-02-23T15:31:52;4.60;99.90
12386;DHT22;6257;57.634;18.310;2024-02-23T15:34:21;4.60;99.90
12386;DHT22;6257;57.634;18.310;2024-02-23T15:36:48;4.50;99.90
12386;DHT22;6257;57.634;18.310;2024-02-23T15:39:15;4.50;99.90
12386;DHT22;6257;57.634;18.310;2024-02-23T15:41:42;4.40;99.90
12386;DHT22;6257;57.634;18.310;2024-02-23T15:44:09;4.40;99.90
12386;DHT22;6257;57.634;18.310;2024-02-23T15:46:36;4.40;99.90
12386;DHT22;6257;57.634;18.310;2024-02-23T15:49:03;4.40;99.90
12386;DHT22;6257;57.634;18.310;2024-02-23T15:54:03;4.30;99.90
12386;DHT22;6257;57.634;18.310;2024-02-23T15:56:30;4.30;99.90
12386;DHT22;6257;57.634;18.310;2024-02-23T15:58:59;4.30;99.90
12386;DHT22;6257;57.634;18.310;2024-02-23T16:01:26;4.20;99.90
12386;DHT22;6257;57.634;18.310;2024-02-23T16:03:53;4.20;99.90
12386;DHT22;6257;57.634;18.310;2024-02-23T16:06:20;4.20;99.90
12386;DHT22;6257;57.634;18.310;2024-02-23T16:08:50;4.10;99.90
12386;DHT22;6257;57.634;18.310;2024-02-23T16:11:17;4.10;99.90
12386;DHT22;6257;57.634;18.310;2024-02-23T16:16:12;4.10;99.90
12386;DHT22;6257;57.634;18.310;2024-02-23T16:18:40;4.10;99.90
12386;DHT22;6257;57.634;18.310;2024-02-23T16:21:07;4.00;99.90
12386;DHT22;6257;57.634;18.310;2024-02-23T16:23:35;4.00;99.90
12386;DHT22;6257;57.634;18.310;2024-02-23T16:26:03;4.00;99.90
12386;DHT22;6257;57.634;18.310;2024-02-23T16:28:30;4.00;99.90
12386;DHT22;6257;57.634;18.310;2024-02-23T16:30:58;4.00;99.90
12386;DHT22;6257;57.634;18.310;2024-02-23T16:33:25;4.00;99.90
12386;DHT22;6257;57.634;18.310;2024-02-23T16:35:52;4.00;99.90
12386;DHT22;6257;57.634;18.310;2024-02-23T16:38:21;4.00;99.90
12386;DHT22;6257;57.634;18.310;2024-02-23T16:40:48;4.00;99.90
12386;DHT22;6257;57.634;18.310;2024-02-23T16:45:44;3.90;99.90
12386;DHT22;6257;57.634;18.310;2024-02-23T16:48:11;3.90;99.90
12386;DHT22;6257;57.634;18.310;2024-02-23T16:50:38;3.80;99.90
12386;DHT22;6257;57.634;18.310;2024-02-23T16:53:06;3.80;99.90